Aérodrome :
LOGIN :

S'inscrire | Disclaimer

   EN    FR    IT 

 










Légende :    VFR   VFR Marginal   IFR   IFR Intensif   IFR Très Intensif
Visi : 
Plafond : 
>= 8 km
>= 3000ft
5 à 8 km
1000 à 3000 ft
1500m à 5 km
500 à 1000 ft
800 à 1500m
200 à 500 ft
< 800m
< 200 ft
Symboles :   Orages  Brouillard  Fortes neiges  Fortes précipitations  Vent > 20 kt
SIGMETs :   Divers  Orages  Givrage  Turbulence  Onde Orograph.  Cendres Volcan.







- Altitude de l'aérodrome : 681 ft
- Code IATA : OSL


ENGM - Oslo Gardermoen

DERNIER METAR :
  • 092320Z 01004KT 320V050 CAVOK M01/M05 Q0990

METARs EXPIRÉS :
  • 092250Z 32007KT 270V030 CAVOK M01/M05 Q0990
  • 092220Z 32005KT 250V010 CAVOK M01/M05 Q0990
  • 092150Z 31006KT 270V350 CAVOK M01/M05 Q0990 NOSIG
  • 092120Z 30006KT 260V010 CAVOK M00/M04 Q0989 NOSIG
  • 092050Z 30007KT 240V350 CAVOK M00/M04 Q0989 NOSIG
  • 092020Z 30006KT 250V350 CAVOK M01/M04 Q0989 NOSIG

TAF TAF ENGM
Valide du 09 à 18h jusqu'au 10 à 18h UTC


0918/1018 34008KT CAVOK
PROB30
TEMPO 0921/1009 35015G25KT
TEMPO 1009/1018 01020G30KT
Pas de NOTAMs connus pour ce terrain.



MET'MAP, la Météo Aéronautique d'un coup d'oeil ! - Copyright ORBIFLY Décembre 2007 - Disclaimer

ORBIFLY MET'MAP TEAM :

Programmation & Développement : Alexandra Zaïnal
Conception & Développement : Baudouin d'Aumeries
Co-Programmation & Développement : Marc-Olivier Méhu
Soutien technique & logistique : Manuel Goepfert

Contact : metmap@orbifly.com




SOURCES & CREDITS :

   NOAA